METAR TAF Other Links Past 48-hour METAR METAR in this month
How to decode METAR/TAF?
Latest METAR (Issued by Hong Kong International Airport)
ICAO: VHHH

METAR VHHH 162100Z 08005KT 9999 FEW035 22/18 Q1015 NOSIG= 

Latest TAF (Issued by Hong Kong International Airport)
ICAO: VHHH

TAF VHHH 161700Z 1618/1724 10010KT 9999 FEW030 TX28/1706Z TN21/1622Z 
TN20/1722Z BECMG 1704/1706 27010KT BECMG 1709/1711 VRB05KT BECMG 
1721/1723 35010KT= 

Other Links

National Weather Service (NWS)

Please select a meteorological centre from the following items.

Latest METAR:

Latest TAF:

Aviation Briefing Limited

To access the provided information, you must be a registered user to the server. You can Register Now, there is no charge for registration or use of the information.

Please select a meteorological centre from the following items.

Latest METAR/TAF:

Weather Underground of Hong Kong

ICAO: VHHH (Hong Kong International Airport)

Decoded 6-hourly Surface Synoptic Report
Latest METAR
Latest TAF

Hong Kong Weather Graphics

METAR from the Hong Kong International Airport (ICAO: VHHH) in the past 72 hours are plotted in the following graphs.

Temperature Variation
Visibility Variation
Pressure Variation
Wind Speeds & Directions

Hong Kong Observatory

Weather Forecast for Local Aviation
Aviation Weather Report (METAR/SPECI)
Aerodrome Forecast (TAF)


If you have any suggestions about this site, please kindly send an email to webmaster@weatherland.org.hk.